Time,TemperatureF,DewpointF,PressureIn,WindDirection,WindDirectionDegrees,WindSpeedMPH,WindSpeedGustMPH,Humidity,HourlyPrecipIn,Conditions,Clouds,dailyrainin,SoftwareType,DateUTC
2013-03-23 00:02:00,9.0,8.0,-100.00,NW,315,4.0,6.0,96,-99.99,,,-99.99,,2013-03-23 05:02:00,
2013-03-23 01:32:00,11.0,9.0,-100.00,WNW,285,6.0,6.0,93,-99.99,,,-99.99,,2013-03-23 06:32:00,
2013-03-23 01:42:00,11.0,9.0,-100.00,WNW,285,6.0,6.0,93,-99.99,,,-99.99,,2013-03-23 06:42:00,
2013-03-23 01:52:00,11.0,9.0,-100.00,WNW,285,6.0,6.0,93,-99.99,,,-99.99,,2013-03-23 06:52:00,
2013-03-23 02:02:00,11.0,9.0,-100.00,WNW,285,6.0,6.0,93,-99.99,,,-99.99,,2013-03-23 07:02:00,
2013-03-23 02:33:00,12.0,10.0,-100.00,West,275,8.0,8.0,94,-99.99,,,-99.99,,2013-03-23 07:33:00,
2013-03-23 02:42:00,12.0,10.0,-100.00,West,275,8.0,8.0,94,-99.99,,,-99.99,,2013-03-23 07:42:00,
2013-03-23 02:52:00,12.0,10.0,-100.00,West,275,8.0,8.0,94,-99.99,,,-99.99,,2013-03-23 07:52:00,
2013-03-23 03:02:00,12.0,10.0,-100.00,West,275,8.0,8.0,94,-99.99,,,-99.99,,2013-03-23 08:02:00,
2013-03-23 03:32:00,10.0,9.0,-100.00,NW,325,5.0,6.0,94,-99.99,,,-99.99,,2013-03-23 08:32:00,
2013-03-23 03:42:00,10.0,9.0,-100.00,NW,325,5.0,6.0,94,-99.99,,,-99.99,,2013-03-23 08:42:00,
2013-03-23 03:52:00,10.0,9.0,-100.00,NW,325,5.0,6.0,94,-99.99,,,-99.99,,2013-03-23 08:52:00,
2013-03-23 04:02:00,10.0,9.0,-100.00,NW,325,5.0,6.0,94,-99.99,,,-99.99,,2013-03-23 09:02:00,
2013-03-23 04:33:00,12.0,11.0,-100.00,West,275,7.0,7.0,94,-99.99,,,-99.99,,2013-03-23 09:33:00,
2013-03-23 04:43:00,12.0,11.0,-100.00,West,275,7.0,7.0,94,-99.99,,,-99.99,,2013-03-23 09:43:00,
2013-03-23 04:53:00,12.0,11.0,-100.00,West,275,7.0,7.0,94,-99.99,,,-99.99,,2013-03-23 09:53:00,
2013-03-23 05:03:00,12.0,11.0,-100.00,West,275,7.0,7.0,94,-99.99,,,-99.99,,2013-03-23 10:03:00,
2013-03-23 05:34:00,11.0,9.0,-100.00,NW,310,6.0,7.0,95,-99.99,,,-99.99,,2013-03-23 10:34:00,
2013-03-23 05:43:00,11.0,9.0,-100.00,NW,310,6.0,7.0,95,-99.99,,,-99.99,,2013-03-23 10:43:00,
2013-03-23 05:52:00,11.0,9.0,-100.00,NW,310,6.0,7.0,95,-99.99,,,-99.99,,2013-03-23 10:52:00,
2013-03-23 06:03:00,11.0,9.0,-100.00,NW,310,6.0,7.0,95,-99.99,,,-99.99,,2013-03-23 11:03:00,
2013-03-23 06:10:00,11.0,10.0,-100.00,WNW,290,7.0,7.0,96,-99.99,,,-99.99,,2013-03-23 11:10:00,
2013-03-23 06:32:00,11.0,10.0,-100.00,WNW,290,7.0,7.0,96,-99.99,,,-99.99,,2013-03-23 11:32:00,
2013-03-23 06:42:00,11.0,10.0,-100.00,WNW,290,7.0,7.0,96,-99.99,,,-99.99,,2013-03-23 11:42:00,
2013-03-23 06:52:00,11.0,10.0,-100.00,WNW,290,7.0,7.0,96,-99.99,,,-99.99,,2013-03-23 11:52:00,
2013-03-23 07:02:00,11.0,10.0,-100.00,WNW,290,7.0,7.0,96,-99.99,,,-99.99,,2013-03-23 12:02:00,
2013-03-23 07:33:00,11.0,10.0,-100.00,WNW,295,6.0,6.0,97,-99.99,,,-99.99,,2013-03-23 12:33:00,
2013-03-23 07:43:00,11.0,10.0,-100.00,WNW,295,6.0,6.0,97,-99.99,,,-99.99,,2013-03-23 12:43:00,
2013-03-23 07:53:00,11.0,10.0,-100.00,WNW,295,6.0,6.0,97,-99.99,,,-99.99,,2013-03-23 12:53:00,
2013-03-23 08:03:00,11.0,10.0,-100.00,WNW,295,6.0,6.0,97,-99.99,,,-99.99,,2013-03-23 13:03:00,
2013-03-23 08:10:00,12.0,12.0,-100.00,West,275,5.0,5.0,97,-99.99,,,-99.99,,2013-03-23 13:10:00,
2013-03-23 08:33:00,12.0,12.0,-100.00,West,275,5.0,5.0,97,-99.99,,,-99.99,,2013-03-23 13:33:00,
2013-03-23 08:43:00,12.0,12.0,-100.00,West,275,5.0,5.0,97,-99.99,,,-99.99,,2013-03-23 13:43:00,
2013-03-23 08:53:00,12.0,12.0,-100.00,West,275,5.0,5.0,97,-99.99,,,-99.99,,2013-03-23 13:53:00,
2013-03-23 09:03:00,12.0,12.0,-100.00,West,275,5.0,5.0,97,-99.99,,,-99.99,,2013-03-23 14:03:00,
2013-03-23 09:33:00,15.0,14.0,-100.00,West,260,4.0,4.0,96,-99.99,,,-99.99,,2013-03-23 14:33:00,
2013-03-23 09:43:00,15.0,14.0,-100.00,West,260,4.0,4.0,96,-99.99,,,-99.99,,2013-03-23 14:43:00,
2013-03-23 09:53:00,15.0,14.0,-100.00,West,260,4.0,4.0,96,-99.99,,,-99.99,,2013-03-23 14:53:00,
2013-03-23 10:03:00,15.0,14.0,-100.00,West,260,4.0,4.0,96,-99.99,,,-99.99,,2013-03-23 15:03:00,
2013-03-23 10:11:00,19.0,17.0,-100.00,NW,315,4.0,4.0,90,-99.99,,,-99.99,,2013-03-23 15:11:00,
2013-03-23 10:34:00,19.0,17.0,-100.00,NW,315,4.0,4.0,90,-99.99,,,-99.99,,2013-03-23 15:34:00,
2013-03-23 10:44:00,19.0,17.0,-100.00,NW,315,4.0,4.0,90,-99.99,,,-99.99,,2013-03-23 15:44:00,
2013-03-23 10:53:00,19.0,17.0,-100.00,NW,315,4.0,4.0,90,-99.99,,,-99.99,,2013-03-23 15:53:00,
2013-03-23 11:03:00,19.0,17.0,-100.00,NW,315,4.0,4.0,90,-99.99,,,-99.99,,2013-03-23 16:03:00,
2013-03-23 11:33:00,22.0,18.0,-100.00,WNW,290,3.0,4.0,85,-99.99,,,-99.99,,2013-03-23 16:33:00,
2013-03-23 11:43:00,22.0,18.0,-100.00,WNW,290,3.0,4.0,85,-99.99,,,-99.99,,2013-03-23 16:43:00,
2013-03-23 11:53:00,22.0,18.0,-100.00,WNW,290,3.0,4.0,85,-99.99,,,-99.99,,2013-03-23 16:53:00,
2013-03-23 12:02:00,22.0,18.0,-100.00,WNW,290,3.0,4.0,85,-99.99,,,-99.99,,2013-03-23 17:02:00,
2013-03-23 12:11:00,25.0,18.0,-100.00,WSW,245,5.0,7.0,77,-99.99,,,-99.99,,2013-03-23 17:11:00,
2013-03-23 12:33:00,25.0,18.0,-100.00,WSW,245,5.0,7.0,77,-99.99,,,-99.99,,2013-03-23 17:33:00,
2013-03-23 12:43:00,25.0,18.0,-100.00,WSW,245,5.0,7.0,77,-99.99,,,-99.99,,2013-03-23 17:43:00,
2013-03-23 12:53:00,25.0,18.0,-100.00,WSW,245,5.0,7.0,77,-99.99,,,-99.99,,2013-03-23 17:53:00,
2013-03-23 13:03:00,25.0,18.0,-100.00,WSW,245,5.0,7.0,77,-99.99,,,-99.99,,2013-03-23 18:03:00,
2013-03-23 13:10:00,26.0,19.0,-100.00,North,0,4.0,5.0,74,-99.99,,,-99.99,,2013-03-23 18:10:00,
2013-03-23 13:32:00,26.0,19.0,-100.00,North,0,4.0,5.0,74,-99.99,,,-99.99,,2013-03-23 18:32:00,
2013-03-23 13:43:00,26.0,19.0,-100.00,North,0,4.0,5.0,74,-99.99,,,-99.99,,2013-03-23 18:43:00,
2013-03-23 13:53:00,26.0,19.0,-100.00,North,0,4.0,5.0,74,-99.99,,,-99.99,,2013-03-23 18:53:00,
2013-03-23 14:03:00,26.0,19.0,-100.00,North,0,4.0,5.0,74,-99.99,,,-99.99,,2013-03-23 19:03:00,
2013-03-23 14:33:00,29.0,20.0,-100.00,NNW,345,4.0,5.0,71,-99.99,,,-99.99,,2013-03-23 19:33:00,
2013-03-23 14:43:00,29.0,20.0,-100.00,NNW,345,4.0,5.0,71,-99.99,,,-99.99,,2013-03-23 19:43:00,
2013-03-23 14:53:00,29.0,20.0,-100.00,NNW,345,4.0,5.0,71,-99.99,,,-99.99,,2013-03-23 19:53:00,
2013-03-23 15:02:00,29.0,20.0,-100.00,NNW,345,4.0,5.0,71,-99.99,,,-99.99,,2013-03-23 20:02:00,
2013-03-23 15:33:00,29.0,21.0,-100.00,NNW,345,4.0,5.0,71,-99.99,,,-99.99,,2013-03-23 20:33:00,
2013-03-23 15:43:00,29.0,21.0,-100.00,NNW,345,4.0,5.0,71,-99.99,,,-99.99,,2013-03-23 20:43:00,
2013-03-23 15:53:00,29.0,21.0,-100.00,NNW,345,4.0,5.0,71,-99.99,,,-99.99,,2013-03-23 20:53:00,
2013-03-23 16:02:00,29.0,21.0,-100.00,NNW,345,4.0,5.0,71,-99.99,,,-99.99,,2013-03-23 21:02:00,
2013-03-23 16:11:00,29.0,22.0,-100.00,North,5,4.0,5.0,74,-99.99,,,-99.99,,2013-03-23 21:11:00,
2013-03-23 16:33:00,29.0,22.0,-100.00,North,5,4.0,5.0,74,-99.99,,,-99.99,,2013-03-23 21:33:00,
2013-03-23 16:43:00,29.0,22.0,-100.00,North,5,4.0,5.0,74,-99.99,,,-99.99,,2013-03-23 21:43:00,
2013-03-23 16:54:00,29.0,22.0,-100.00,North,5,4.0,5.0,74,-99.99,,,-99.99,,2013-03-23 21:54:00,
2013-03-23 17:03:00,29.0,22.0,-100.00,North,5,4.0,5.0,74,-99.99,,,-99.99,,2013-03-23 22:03:00,
2013-03-23 17:33:00,29.0,22.0,-100.00,NNE,15,4.0,5.0,74,-99.99,,,-99.99,,2013-03-23 22:33:00,
2013-03-23 17:43:00,29.0,22.0,-100.00,NNE,15,4.0,5.0,74,-99.99,,,-99.99,,2013-03-23 22:43:00,
2013-03-23 17:53:00,29.0,22.0,-100.00,NNE,15,4.0,5.0,74,-99.99,,,-99.99,,2013-03-23 22:53:00,
2013-03-23 18:02:00,29.0,22.0,-100.00,NNE,15,4.0,5.0,74,-99.99,,,-99.99,,2013-03-23 23:02:00,
2013-03-23 18:11:00,27.0,20.0,-100.00,WSW,245,4.0,5.0,76,-99.99,,,-99.99,,2013-03-23 23:11:00,
2013-03-23 18:33:00,27.0,20.0,-100.00,WSW,245,4.0,5.0,76,-99.99,,,-99.99,,2013-03-23 23:33:00,
2013-03-23 18:43:00,27.0,20.0,-100.00,WSW,245,4.0,5.0,76,-99.99,,,-99.99,,2013-03-23 23:43:00,
2013-03-23 18:52:00,27.0,20.0,-100.00,WSW,245,4.0,5.0,76,-99.99,,,-99.99,,2013-03-23 23:52:00,
2013-03-23 19:02:00,27.0,20.0,-100.00,WSW,245,4.0,5.0,76,-99.99,,,-99.99,,2013-03-24 00:02:00,
2013-03-23 19:10:00,25.0,21.0,-100.00,WSW,245,5.0,6.0,85,-99.99,,,-99.99,,2013-03-24 00:10:00,
2013-03-23 19:33:00,25.0,21.0,-100.00,WSW,245,5.0,6.0,85,-99.99,,,-99.99,,2013-03-24 00:33:00,
2013-03-23 19:42:00,25.0,21.0,-100.00,WSW,245,5.0,6.0,85,-99.99,,,-99.99,,2013-03-24 00:42:00,
2013-03-23 19:53:00,25.0,21.0,-100.00,WSW,245,5.0,6.0,85,-99.99,,,-99.99,,2013-03-24 00:53:00,
2013-03-23 20:02:00,25.0,21.0,-100.00,WSW,245,5.0,6.0,85,-99.99,,,-99.99,,2013-03-24 01:02:00,
2013-03-23 20:10:00,22.0,22.0,-100.00,WSW,245,4.0,4.0,99,-99.99,,,-99.99,,2013-03-24 01:10:00,
2013-03-23 20:33:00,22.0,22.0,-100.00,WSW,245,4.0,4.0,99,-99.99,,,-99.99,,2013-03-24 01:33:00,
2013-03-23 20:43:00,22.0,22.0,-100.00,WSW,245,4.0,4.0,99,-99.99,,,-99.99,,2013-03-24 01:43:00,
2013-03-23 20:53:00,22.0,22.0,-100.00,WSW,245,4.0,4.0,99,-99.99,,,-99.99,,2013-03-24 01:53:00,
2013-03-23 21:03:00,22.0,22.0,-100.00,WSW,245,4.0,4.0,99,-99.99,,,-99.99,,2013-03-24 02:03:00,
2013-03-23 21:32:00,22.0,21.0,-100.00,NW,305,3.0,4.0,99,-99.99,,,-99.99,,2013-03-24 02:32:00,
2013-03-23 21:43:00,22.0,21.0,-100.00,NW,305,3.0,4.0,99,-99.99,,,-99.99,,2013-03-24 02:43:00,
2013-03-23 21:52:00,22.0,21.0,-100.00,NW,305,3.0,4.0,99,-99.99,,,-99.99,,2013-03-24 02:52:00,
2013-03-23 22:02:00,22.0,21.0,-100.00,NW,305,3.0,4.0,99,-99.99,,,-99.99,,2013-03-24 03:02:00,
2013-03-23 22:33:00,21.0,21.0,-100.00,WSW,245,6.0,7.0,99,-99.99,,,-99.99,,2013-03-24 03:33:00,
2013-03-23 22:43:00,21.0,21.0,-100.00,WSW,245,6.0,7.0,99,-99.99,,,-99.99,,2013-03-24 03:43:00,
2013-03-23 22:53:00,21.0,21.0,-100.00,WSW,245,6.0,7.0,99,-99.99,,,-99.99,,2013-03-24 03:53:00,
2013-03-23 23:03:00,21.0,21.0,-100.00,WSW,245,6.0,7.0,99,-99.99,,,-99.99,,2013-03-24 04:03:00,
2013-03-23 23:10:00,21.0,20.0,-100.00,NW,325,3.0,4.0,99,-99.99,,,-99.99,,2013-03-24 04:10:00,
2013-03-23 23:33:00,21.0,20.0,-100.00,NW,325,3.0,4.0,99,-99.99,,,-99.99,,2013-03-24 04:33:00,
2013-03-23 23:43:00,21.0,20.0,-100.00,NW,325,3.0,4.0,99,-99.99,,,-99.99,,2013-03-24 04:43:00,
2013-03-23 23:53:00,21.0,20.0,-100.00,NW,325,3.0,4.0,99,-99.99,,,-99.99,,2013-03-24 04:53:00,